Time;durP1;ratioP1;P1;durP2;ratioP2;P2;SDS_P1;SDS_P2;PMS_P1;PMS_P2;Temp;Humidity;BMP_temperature;BMP_pressure;BME280_temperature;BME280_humidity;BME280_pressure;Samples;Min_cycle;Max_cycle;Signal;HPM_P1;HPM_P2
2022/01/15 00:01:05;;;;;;;51.42;24.33;;;205.00;2201.60;;;;;;5031677;28;20553;-61
2022/01/15 00:03:31;;;;;;;18.75;8.43;;;205.10;2201.60;;;;;;5032049;28;20075;-62
2022/01/15 00:05:57;;;;;;;43.10;22.88;;;205.10;2176.00;;;;;;5032127;28;20036;-61
2022/01/15 00:08:24;;;;;;;22.15;12.75;;;205.10;2176.00;;;;;;5031774;28;20451;-61
2022/01/15 00:10:50;;;;;;;16.55;9.57;;;205.00;2176.00;;;;;;5032036;28;20030;-61
2022/01/15 00:13:27;;;;;;;81.85;41.17;;;205.00;2201.60;;;;;;5030525;28;20535;-61
2022/01/15 00:16:04;;;;;;;28.05;15.55;;;205.00;2176.00;;;;;;5031815;28;20064;-61
2022/01/15 00:18:43;;;;;;;124.18;65.72;;;205.10;2201.60;;;;;;5031678;28;20038;-61
2022/01/15 00:21:10;;;;;;;60.67;30.52;;;205.10;2176.00;;;;;;5031686;28;20396;-61
2022/01/15 00:23:36;;;;;;;97.35;52.78;;;205.10;2201.60;;;;;;5031426;28;20049;-61
2022/01/15 00:26:02;;;;;;;28.77;15.95;;;205.00;2201.60;;;;;;5031619;28;20337;-61
2022/01/15 00:28:28;;;;;;;39.33;20.38;;;205.10;2201.60;;;;;;5031632;28;20390;-60
2022/01/15 00:30:53;;;;;;;31.48;18.15;;;205.00;2227.20;;;;;;5031258;28;20017;-58
2022/01/15 00:33:19;;;;;;;56.08;32.92;;;205.00;2201.60;;;;;;5031487;28;20033;-60
2022/01/15 00:35:45;;;;;;;64.35;31.58;;;205.00;2201.60;;;;;;5031282;28;20090;-60
2022/01/15 00:38:10;;;;;;;12.57;7.45;;;205.00;2176.00;;;;;;5031508;28;20375;-62
2022/01/15 00:40:36;;;;;;;13.10;8.00;;;205.20;2176.00;;;;;;5033182;28;20280;-61
2022/01/15 00:43:02;;;;;;;40.30;24.13;;;205.20;2176.00;;;;;;5039577;28;20037;-61
2022/01/15 00:45:32;;;;;;;18.33;10.45;;;205.10;2176.00;;;;;;5041257;28;20029;-60
2022/01/15 00:47:58;;;;;;;27.75;15.40;;;205.20;2176.00;;;;;;5040625;28;20104;-61
2022/01/15 00:50:24;;;;;;;11.27;7.22;;;205.20;2176.00;;;;;;5041269;28;20028;-61
2022/01/15 00:52:50;;;;;;;22.48;11.07;;;205.10;2201.60;;;;;;5039757;28;20025;-60
2022/01/15 00:55:18;;;;;;;19.70;9.95;;;205.10;2201.60;;;;;;5038907;28;20028;-59
2022/01/15 00:57:44;;;;;;;19.92;14.07;;;205.00;2176.00;;;;;;5037906;28;20372;-61
2022/01/15 01:00:13;;;;;;;34.35;16.60;;;205.10;2176.00;;;;;;5040548;28;20021;-62
2022/01/15 01:02:39;;;;;;;18.65;12.57;;;205.20;2150.40;;;;;;5039101;28;20487;-63
2022/01/15 01:05:06;;;;;;;21.73;13.75;;;205.20;2150.40;;;;;;5039934;28;20017;-61
2022/01/15 01:07:32;;;;;;;12.68;7.70;;;205.30;2150.40;;;;;;5045855;28;20435;-61
2022/01/15 01:10:19;;;;;;;36.85;18.15;;;205.20;2150.40;;;;;;5050693;28;20025;-61
2022/01/15 01:13:08;;;;;;;23.13;14.00;;;205.20;2124.80;;;;;;5050401;28;20060;-60
2022/01/15 01:21:26;;;;;;;14.75;10.18;;;205.10;2176.00;;;;;;5050746;28;20067;-61
2022/01/15 01:23:48;;;;;;;14.20;9.45;;;205.10;2176.00;;;;;;5050353;28;20033;-61
2022/01/15 01:32:14;;;;;;;27.55;14.48;;;204.80;2252.80;;;;;;5068131;28;20493;-61
2022/01/15 01:34:40;;;;;;;25.58;17.73;;;180.10;2252.80;;;;;;5068087;28;20090;-61
2022/01/15 01:45:06;;;;;;;26.75;18.58;;;180.10;2252.80;;;;;;5067879;28;20039;-61
2022/01/15 01:47:39;;;;;;;25.98;16.75;;;180.10;2252.80;;;;;;5067889;28;20037;-61
2022/01/15 01:50:06;;;;;;;26.25;14.95;;;180.10;2252.80;;;;;;5067796;28;20037;-60
2022/01/15 01:52:32;;;;;;;24.30;13.10;;;180.00;2252.80;;;;;;5067965;28;20487;-61
2022/01/15 01:54:58;;;;;;;20.80;12.60;;;180.00;2252.80;;;;;;5067948;28;20035;-60
2022/01/15 01:57:23;;;;;;;21.63;13.95;;;180.10;2252.80;;;;;;5067689;28;20021;-61
2022/01/15 01:59:49;;;;;;;27.65;13.23;;;180.10;2252.80;;;;;;5067945;28;20033;-61
2022/01/15 02:02:15;;;;;;;16.02;10.18;;;180.00;2252.80;;;;;;5067410;28;20372;-61
2022/01/15 02:04:41;;;;;;;86.68;41.15;;;180.10;2252.80;;;;;;5067981;28;20040;-61
2022/01/15 02:07:07;;;;;;;101.45;47.85;;;180.10;2252.80;;;;;;5061753;28;20053;-61
2022/01/15 02:09:32;;;;;;;20.05;10.80;;;180.00;2252.80;;;;;;5016992;28;20040;-61
2022/01/15 02:11:58;;;;;;;16.80;11.27;;;180.00;2252.80;;;;;;5010248;28;20029;-62
2022/01/15 02:14:25;;;;;;;18.30;12.15;;;180.00;2252.80;;;;;;5010400;28;20068;-61
2022/01/15 02:16:51;;;;;;;57.63;29.23;;;179.90;2252.80;;;;;;5010261;28;20045;-61
2022/01/15 02:19:16;;;;;;;33.65;19.25;;;179.90;2252.80;;;;;;5010399;28;20030;-61
2022/01/15 02:24:14;;;;;;;19.33;11.98;;;179.90;2252.80;;;;;;5010301;28;20049;-61
2022/01/15 02:26:39;;;;;;;41.28;23.17;;;180.00;2252.80;;;;;;5010245;28;20030;-61
2022/01/15 02:29:07;;;;;;;17.85;11.93;;;179.90;2252.80;;;;;;5009958;28;20026;-61
2022/01/15 02:31:34;;;;;;;16.40;11.60;;;179.70;2252.80;;;;;;5009876;28;20037;-61
2022/01/15 02:34:02;;;;;;;30.35;17.60;;;179.60;2252.80;;;;;;5010151;28;20041;-61
2022/01/15 02:36:31;;;;;;;19.10;12.07;;;179.60;2252.80;;;;;;5011071;28;20079;-61
2022/01/15 02:38:57;;;;;;;20.27;10.77;;;179.50;2252.80;;;;;;5013932;28;20034;-61
2022/01/15 02:41:33;;;;;;;17.92;11.10;;;179.70;2252.80;;;;;;5013574;28;20487;-62
2022/01/15 02:44:00;;;;;;;17.17;11.02;;;179.60;2252.80;;;;;;5013725;28;20029;-61
2022/01/15 02:48:55;;;;;;;17.95;11.07;;;179.80;2252.80;;;;;;5013458;28;20084;-61
2022/01/15 02:51:24;;;;;;;39.40;22.02;;;179.80;2252.80;;;;;;5013534;28;20484;-61
2022/01/15 02:53:55;;;;;;;22.23;12.57;;;179.50;2252.80;;;;;;5013524;28;20026;-60
2022/01/15 02:56:42;;;;;;;22.35;12.50;;;179.40;2252.80;;;;;;5013604;28;20030;-60
2022/01/15 02:59:16;;;;;;;17.70;11.13;;;179.40;2252.80;;;;;;5013314;28;20465;-61
2022/01/15 03:01:42;;;;;;;21.90;12.82;;;179.40;2252.80;;;;;;5012951;28;20480;-61
2022/01/15 03:04:09;;;;;;;19.27;12.10;;;179.20;2252.80;;;;;;5013445;28;20052;-61
2022/01/15 03:06:35;;;;;;;23.40;14.10;;;179.30;2252.80;;;;;;5015811;28;20030;-61
2022/01/15 03:09:00;;;;;;;25.13;13.85;;;154.50;2252.80;;;;;;5053032;28;20021;-61
2022/01/15 03:11:28;;;;;;;22.17;12.77;;;154.50;2252.80;;;;;;5052803;28;20425;-61
2022/01/15 03:13:54;;;;;;;23.65;13.55;;;154.40;2252.80;;;;;;5052724;28;20017;-61
2022/01/15 03:16:21;;;;;;;29.50;14.30;;;154.50;2252.80;;;;;;5052742;28;20387;-61
2022/01/15 03:18:48;;;;;;;18.73;12.80;;;179.20;2252.80;;;;;;5052725;28;20024;-61
2022/01/15 03:21:13;;;;;;;27.77;18.38;;;154.50;2252.80;;;;;;5052422;28;20033;-61
2022/01/15 03:23:40;;;;;;;20.70;13.77;;;179.20;2252.80;;;;;;5052819;28;20028;-61
2022/01/15 03:26:08;;;;;;;21.67;12.45;;;154.50;2252.80;;;;;;5052453;28;20036;-61
2022/01/15 03:28:36;;;;;;;20.98;12.63;;;179.20;2252.80;;;;;;5052471;28;20035;-61
2022/01/15 03:31:02;;;;;;;21.55;14.30;;;179.30;2252.80;;;;;;5052097;28;20025;-61
2022/01/15 03:33:28;;;;;;;20.67;11.65;;;179.20;2252.80;;;;;;5052532;28;20047;-62
2022/01/15 03:35:54;;;;;;;20.05;10.95;;;179.40;2252.80;;;;;;5052414;28;20021;-61
2022/01/15 03:38:19;;;;;;;21.05;12.68;;;179.30;2252.80;;;;;;5052400;28;20027;-61
2022/01/15 03:40:45;;;;;;;31.83;15.80;;;179.30;2252.80;;;;;;5052087;28;20021;-61
2022/01/15 03:43:12;;;;;;;19.42;10.43;;;179.20;2252.80;;;;;;5052181;28;20040;-60
2022/01/15 03:45:37;;;;;;;15.95;10.43;;;179.30;2252.80;;;;;;5052179;28;20159;-58
2022/01/15 03:48:03;;;;;;;14.55;10.13;;;179.40;2252.80;;;;;;5051914;28;20459;-60
2022/01/15 03:50:29;;;;;;;18.60;11.70;;;179.30;2252.80;;;;;;5052278;28;20025;-61
2022/01/15 03:52:56;;;;;;;24.40;13.45;;;179.30;2252.80;;;;;;5052190;28;20032;-60
2022/01/15 03:55:23;;;;;;;20.58;12.25;;;179.30;2252.80;;;;;;5051820;28;20029;-61
2022/01/15 03:57:49;;;;;;;29.50;16.85;;;179.20;2252.80;;;;;;5051962;28;20037;-60
2022/01/15 04:00:24;;;;;;;39.08;23.13;;;179.30;2252.80;;;;;;5051569;28;20021;-60
2022/01/15 04:02:50;;;;;;;22.60;12.65;;;179.20;2252.80;;;;;;5052194;28;20399;-60
2022/01/15 04:05:16;;;;;;;200.93;128.27;;;179.30;2252.80;;;;;;5051631;28;20025;-61
2022/01/15 04:07:42;;;;;;;23.10;14.40;;;179.20;2252.80;;;;;;5051637;28;20056;-61
2022/01/15 04:10:10;;;;;;;24.73;14.40;;;154.50;2252.80;;;;;;5051783;28;20047;-61
2022/01/15 04:12:36;;;;;;;20.77;14.60;;;179.20;2252.80;;;;;;5051532;28;20037;-61
2022/01/15 04:15:03;;;;;;;23.67;15.40;;;154.40;2252.80;;;;;;5051600;28;20402;-61
2022/01/15 04:17:29;;;;;;;21.52;13.25;;;154.50;2252.80;;;;;;5051954;28;20052;-61
2022/01/15 04:19:55;;;;;;;26.42;13.32;;;154.50;2252.80;;;;;;5051853;28;20126;-61
2022/01/15 04:22:21;;;;;;;19.73;12.30;;;179.20;2252.80;;;;;;5051679;28;20033;-61
2022/01/15 04:24:47;;;;;;;20.73;13.50;;;179.20;2252.80;;;;;;5051429;28;20029;-58
2022/01/15 04:27:13;;;;;;;25.55;17.55;;;179.20;2252.80;;;;;;5051255;28;20039;-61
2022/01/15 04:29:39;;;;;;;20.50;13.98;;;154.50;2252.80;;;;;;5051268;28;20025;-61
2022/01/15 04:32:05;;;;;;;22.05;13.45;;;179.20;2252.80;;;;;;5051235;28;20395;-61
2022/01/15 04:34:31;;;;;;;22.77;14.68;;;179.20;2252.80;;;;;;5051629;28;20040;-61
2022/01/15 04:37:12;;;;;;;19.15;14.52;;;179.20;2252.80;;;;;;5051165;28;20387;-61
2022/01/15 04:39:39;;;;;;;22.88;14.65;;;154.50;2252.80;;;;;;5051303;28;20025;-61
2022/01/15 04:42:05;;;;;;;21.45;15.73;;;179.30;2252.80;;;;;;5050876;28;20083;-60
2022/01/15 04:44:31;;;;;;;19.83;16.63;;;154.50;2252.80;;;;;;5051046;28;20379;-60
2022/01/15 04:46:59;;;;;;;18.52;12.50;;;179.20;2252.80;;;;;;5051204;28;20040;-61
2022/01/15 04:49:25;;;;;;;21.83;13.05;;;154.50;2252.80;;;;;;5050929;28;20100;-61
2022/01/15 04:51:51;;;;;;;17.85;12.07;;;154.40;2252.80;;;;;;5050988;28;20505;-59
2022/01/15 04:54:16;;;;;;;17.95;12.00;;;154.40;2252.80;;;;;;5050953;28;20025;-61
2022/01/15 04:56:42;;;;;;;21.95;11.80;;;154.30;2252.80;;;;;;5050763;28;20227;-60
2022/01/15 04:59:10;;;;;;;23.83;15.43;;;154.40;2252.80;;;;;;5050250;28;20052;-59
2022/01/15 05:01:37;;;;;;;17.13;11.43;;;154.40;2252.80;;;;;;5050493;28;20052;-59
2022/01/15 05:04:03;;;;;;;18.92;12.73;;;154.30;2252.80;;;;;;5050578;28;20383;-59
2022/01/15 05:06:28;;;;;;;34.40;30.70;;;154.30;2252.80;;;;;;5050703;28;20029;-59
2022/01/15 05:09:03;;;;;;;19.20;17.20;;;154.30;2252.80;;;;;;5050773;28;20041;-62
2022/01/15 05:11:42;;;;;;;18.75;10.75;;;154.50;2252.80;;;;;;5050649;28;20119;-59
2022/01/15 05:14:08;;;;;;;20.65;12.30;;;154.40;2252.80;;;;;;5050557;28;20110;-59
2022/01/15 05:16:34;;;;;;;21.55;11.93;;;154.40;2252.80;;;;;;5050620;28;20056;-59
2022/01/15 05:18:59;;;;;;;19.00;14.10;;;154.30;2252.80;;;;;;5050518;28;20024;-59
2022/01/15 05:21:25;;;;;;;19.35;13.68;;;154.50;2252.80;;;;;;5050386;28;20047;-62
2022/01/15 05:23:51;;;;;;;22.48;16.38;;;154.40;2252.80;;;;;;5050457;28;20021;-59
2022/01/15 05:26:17;;;;;;;17.83;12.88;;;154.40;2252.80;;;;;;5050433;28;20033;-60
2022/01/15 05:28:42;;;;;;;20.58;11.82;;;154.20;2252.80;;;;;;5050123;28;20059;-60
2022/01/15 05:31:08;;;;;;;18.00;11.32;;;154.30;2252.80;;;;;;5050479;28;20037;-59
2022/01/15 05:33:34;;;;;;;19.13;13.02;;;154.20;2252.80;;;;;;5050313;28;20379;-59
2022/01/15 05:36:00;;;;;;;17.20;11.70;;;154.40;2252.80;;;;;;5050426;28;20040;-59
2022/01/15 05:38:26;;;;;;;21.10;13.68;;;154.20;2252.80;;;;;;5050379;28;20407;-61
2022/01/15 05:40:52;;;;;;;30.45;21.25;;;154.20;2252.80;;;;;;5050015;28;20039;-60
2022/01/15 05:43:18;;;;;;;17.90;11.50;;;154.30;2252.80;;;;;;5050126;28;20044;-59
2022/01/15 05:45:43;;;;;;;17.95;13.35;;;154.40;2252.80;;;;;;5050053;28;20494;-60
2022/01/15 05:48:09;;;;;;;21.60;12.98;;;154.30;2252.80;;;;;;5050217;28;20025;-60
2022/01/15 05:50:35;;;;;;;21.30;13.13;;;154.40;2252.80;;;;;;5050092;28;20360;-59
2022/01/15 05:53:00;;;;;;;18.02;11.90;;;154.30;2252.80;;;;;;5050074;28;20082;-60
2022/01/15 05:55:26;;;;;;;23.35;12.70;;;154.20;2252.80;;;;;;5048669;28;20040;-61
2022/01/15 05:57:52;;;;;;;17.77;11.10;;;154.20;2252.80;;;;;;5049762;28;20471;-60
2022/01/15 06:00:17;;;;;;;15.77;10.50;;;154.30;2252.80;;;;;;5049826;28;20163;-61
2022/01/15 06:02:43;;;;;;;19.02;11.55;;;154.40;2252.80;;;;;;5049727;28;20044;-59
2022/01/15 06:05:10;;;;;;;19.95;10.65;;;154.40;2252.80;;;;;;5050238;28;20407;-60
2022/01/15 06:07:35;;;;;;;17.88;11.90;;;154.20;2252.80;;;;;;5049554;28;20051;-59
2022/01/15 06:10:02;;;;;;;17.63;11.45;;;154.30;2252.80;;;;;;5050074;28;20495;-60
2022/01/15 06:12:31;;;;;;;24.23;16.58;;;154.30;2252.80;;;;;;5052533;28;20051;-60
2022/01/15 06:14:57;;;;;;;21.52;13.32;;;154.10;2252.80;;;;;;5053839;28;20017;-61
2022/01/15 06:17:23;;;;;;;41.45;21.77;;;154.00;2252.80;;;;;;5054009;28;20454;-61
2022/01/15 06:19:48;;;;;;;19.17;12.85;;;154.00;2252.80;;;;;;5053899;28;20060;-60
2022/01/15 06:22:14;;;;;;;30.65;18.02;;;154.20;2252.80;;;;;;5053688;28;20120;-60
2022/01/15 06:24:40;;;;;;;25.52;17.92;;;154.30;2252.80;;;;;;5053970;28;20024;-60
2022/01/15 06:27:08;;;;;;;19.90;11.68;;;154.20;2252.80;;;;;;5053503;28;20497;-60
2022/01/15 06:29:34;;;;;;;18.98;12.82;;;154.20;2252.80;;;;;;5053801;28;20024;-60
2022/01/15 06:32:00;;;;;;;19.85;13.02;;;154.10;2252.80;;;;;;5053468;28;20025;-60
2022/01/15 06:34:25;;;;;;;19.38;12.40;;;154.00;2252.80;;;;;;5053665;28;20074;-61
2022/01/15 06:36:51;;;;;;;21.88;14.98;;;154.00;2252.80;;;;;;5053649;28;20025;-60
2022/01/15 06:39:17;;;;;;;25.10;11.95;;;154.00;2252.80;;;;;;5053608;28;20032;-59
2022/01/15 06:41:43;;;;;;;20.20;12.43;;;154.30;2252.80;;;;;;5051979;28;20048;-60
2022/01/15 06:44:08;;;;;;;23.17;15.52;;;154.30;2252.80;;;;;;5053273;28;20581;-60
2022/01/15 06:46:34;;;;;;;25.02;21.58;;;154.20;2252.80;;;;;;5053232;28;20025;-60
2022/01/15 06:48:59;;;;;;;24.77;18.30;;;154.10;2252.80;;;;;;5053263;28;20017;-60
2022/01/15 06:51:25;;;;;;;22.23;16.40;;;154.00;2252.80;;;;;;5053436;28;20028;-62
2022/01/15 06:53:51;;;;;;;21.45;15.57;;;154.00;2252.80;;;;;;5053218;28;20028;-60
2022/01/15 06:56:17;;;;;;;24.00;15.32;;;154.30;2252.80;;;;;;5052990;28;20044;-60
2022/01/15 06:58:43;;;;;;;21.23;13.13;;;154.20;2252.80;;;;;;5052844;28;20057;-60
2022/01/15 07:01:09;;;;;;;21.35;16.05;;;154.40;2252.80;;;;;;5053078;28;20517;-59
2022/01/15 07:03:34;;;;;;;20.80;15.35;;;154.30;2252.80;;;;;;5052937;28;20471;-61
2022/01/15 07:06:00;;;;;;;20.02;13.95;;;154.30;2252.80;;;;;;5053168;28;20025;-59
2022/01/15 07:08:26;;;;;;;33.60;26.42;;;154.10;2252.80;;;;;;5052695;28;20127;-61
2022/01/15 07:10:51;;;;;;;20.75;15.38;;;154.10;2252.80;;;;;;5052995;28;20021;-59
2022/01/15 07:13:20;;;;;;;24.48;16.27;;;154.30;2252.80;;;;;;5052827;28;20112;-59
2022/01/15 07:15:47;;;;;;;19.40;13.73;;;154.30;2252.80;;;;;;5052697;28;20025;-58
2022/01/15 07:18:12;;;;;;;18.70;11.77;;;154.20;2252.80;;;;;;5052623;28;20468;-59
2022/01/15 07:20:38;;;;;;;21.67;12.63;;;154.40;2252.80;;;;;;5052607;28;20075;-59
2022/01/15 07:23:04;;;;;;;17.45;12.55;;;154.50;2252.80;;;;;;5051966;28;20045;-59
2022/01/15 07:25:30;;;;;;;21.15;12.75;;;154.50;2252.80;;;;;;5052952;28;20060;-59
2022/01/15 07:27:55;;;;;;;21.90;13.57;;;154.50;2252.80;;;;;;5052555;28;20387;-59
2022/01/15 07:30:21;;;;;;;24.17;13.52;;;179.20;2252.80;;;;;;5052346;28;20032;-61
2022/01/15 07:32:47;;;;;;;19.90;13.80;;;154.50;2252.80;;;;;;5052245;28;20037;-60
2022/01/15 07:35:13;;;;;;;19.67;12.60;;;179.20;2252.80;;;;;;5052424;28;20460;-60
2022/01/15 07:37:39;;;;;;;18.63;12.30;;;179.50;2252.80;;;;;;5052519;28;20036;-60
2022/01/15 07:40:06;;;;;;;25.08;16.00;;;179.40;2252.80;;;;;;5052221;28;20456;-59
2022/01/15 07:42:36;;;;;;;16.38;12.10;;;179.40;2252.80;;;;;;5050755;28;20041;-61
2022/01/15 07:45:07;;;;;;;20.52;13.00;;;179.40;2252.80;;;;;;5052091;28;20030;-69
2022/01/15 07:47:33;;;;;;;23.30;13.40;;;179.50;2252.80;;;;;;5050429;28;20037;-59
2022/01/15 07:49:59;;;;;;;21.67;13.90;;;179.50;2252.80;;;;;;5052345;28;20025;-58
2022/01/15 07:52:25;;;;;;;22.20;14.10;;;179.50;2252.80;;;;;;5052043;28;20066;-58
2022/01/15 07:54:51;;;;;;;21.80;12.38;;;179.40;2252.80;;;;;;5052158;28;20025;-59
2022/01/15 07:57:17;;;;;;;19.67;13.48;;;179.30;2252.80;;;;;;5051996;28;20028;-58
2022/01/15 07:59:42;;;;;;;18.83;12.05;;;179.30;2252.80;;;;;;5051797;28;20071;-62
2022/01/15 08:02:08;;;;;;;24.80;13.13;;;179.40;2252.80;;;;;;5047393;28;20033;-58
2022/01/15 08:04:34;;;;;;;22.38;13.75;;;179.50;2252.80;;;;;;5032012;28;20053;-75
2022/01/15 08:06:59;;;;;;;19.60;12.45;;;179.50;2252.80;;;;;;5032754;28;20053;-59
2022/01/15 08:09:25;;;;;;;20.20;12.85;;;179.70;2252.80;;;;;;5031999;28;20057;-75
2022/01/15 08:11:51;;;;;;;18.42;12.73;;;179.80;2252.80;;;;;;5043948;28;20033;-74
2022/01/15 08:14:17;;;;;;;24.95;15.20;;;180.00;2252.80;;;;;;5051442;28;20218;-60
2022/01/15 08:16:43;;;;;;;22.25;15.50;;;179.90;2252.80;;;;;;5051680;28;20036;-65
2022/01/15 08:19:11;;;;;;;165.68;91.57;;;179.90;2252.80;;;;;;5051847;28;20032;-68
2022/01/15 08:21:37;;;;;;;85.25;49.50;;;179.90;2252.80;;;;;;5051360;28;20040;-61
2022/01/15 08:24:03;;;;;;;34.45;22.63;;;179.90;2252.80;;;;;;5051147;28;20033;-60
2022/01/15 08:26:29;;;;;;;89.25;57.55;;;179.90;2252.80;;;;;;5051713;28;20463;-60
2022/01/15 08:28:56;;;;;;;36.38;28.42;;;180.00;2252.80;;;;;;5051439;28;20017;-60
2022/01/15 08:31:22;;;;;;;25.88;18.02;;;180.00;2252.80;;;;;;5051365;28;20082;-60
2022/01/15 08:33:47;;;;;;;22.92;15.35;;;180.10;2252.80;;;;;;5051021;28;20429;-60
2022/01/15 08:36:13;;;;;;;19.40;13.65;;;180.10;2252.80;;;;;;5050987;28;20036;-61
2022/01/15 08:38:39;;;;;;;19.92;12.82;;;180.00;2252.80;;;;;;5051414;28;20013;-70
2022/01/15 08:41:05;;;;;;;29.35;20.98;;;180.00;2252.80;;;;;;5051091;28;20420;-74
2022/01/15 08:43:30;;;;;;;24.08;15.25;;;180.10;2252.80;;;;;;5051219;28;20060;-64
2022/01/15 08:45:56;;;;;;;23.92;15.48;;;204.80;2252.80;;;;;;5050883;28;20027;-74
2022/01/15 08:48:22;;;;;;;20.75;14.23;;;204.80;2252.80;;;;;;5051212;28;20074;-71
2022/01/15 08:50:48;;;;;;;22.92;14.43;;;204.80;2252.80;;;;;;5051080;28;20856;-62
2022/01/15 08:53:16;;;;;;;20.52;13.50;;;180.10;2252.80;;;;;;5050872;28;20036;-61
2022/01/15 08:55:45;;;;;;;28.90;14.20;;;180.10;2252.80;;;;;;5050852;28;20024;-62
2022/01/15 08:58:11;;;;;;;22.33;14.75;;;180.00;2252.80;;;;;;5050865;28;20036;-69
2022/01/15 09:00:37;;;;;;;37.22;15.38;;;204.80;2252.80;;;;;;5050400;28;20032;-61
2022/01/15 09:03:06;;;;;;;20.20;13.43;;;180.10;2252.80;;;;;;5050787;28;20041;-61
2022/01/15 09:05:36;;;;;;;16.75;12.13;;;180.10;2252.80;;;;;;5050315;28;20096;-66
2022/01/15 09:08:04;;;;;;;19.92;12.93;;;204.80;2252.80;;;;;;5050454;28;20328;-62
2022/01/15 09:10:30;;;;;;;18.15;13.07;;;204.90;2252.80;;;;;;5050722;28;20025;-62
2022/01/15 09:12:55;;;;;;;22.60;14.00;;;204.90;2252.80;;;;;;5050694;28;20036;-71
2022/01/15 09:15:22;;;;;;;19.15;12.60;;;204.90;2252.80;;;;;;5050676;28;20021;-67
2022/01/15 09:17:47;;;;;;;19.95;13.23;;;205.00;2252.80;;;;;;5050791;28;20090;-61
2022/01/15 09:20:14;;;;;;;20.20;12.65;;;205.00;2252.80;;;;;;5050645;28;20423;-61
2022/01/15 09:22:40;;;;;;;23.90;18.05;;;204.90;2252.80;;;;;;5050374;28;20040;-71
2022/01/15 09:25:06;;;;;;;19.85;14.15;;;205.10;2252.80;;;;;;5050330;28;20082;-62
2022/01/15 09:30:16;;;;;;;37.90;27.33;;;205.20;2252.80;;;;;;5050581;28;20075;-72
2022/01/15 09:32:51;;;;;;;31.98;21.50;;;205.30;2252.80;;;;;;5050307;28;20029;-62
2022/01/15 09:35:22;;;;;;;25.63;16.85;;;205.20;2252.80;;;;;;5050466;28;20027;-58
2022/01/15 09:37:52;;;;;;;25.38;21.40;;;205.30;2252.80;;;;;;5050460;28;20590;-58
2022/01/15 09:40:19;;;;;;;21.70;14.55;;;205.40;2252.80;;;;;;5050423;28;20174;-64
2022/01/15 09:42:47;;;;;;;29.80;22.38;;;205.40;2252.80;;;;;;5050542;28;20078;-75
2022/01/15 09:45:15;;;;;;;18.33;11.52;;;205.50;2252.80;;;;;;5050329;28;20538;-59
2022/01/15 09:47:41;;;;;;;24.55;13.73;;;205.30;2252.80;;;;;;5050622;28;20036;-59
2022/01/15 09:50:10;;;;;;;23.50;15.68;;;205.30;2252.80;;;;;;5050564;28;20021;-76
2022/01/15 09:52:36;;;;;;;21.58;13.88;;;205.30;2252.80;;;;;;5050249;28;20029;-58
2022/01/15 09:55:04;;;;;;;35.00;26.15;;;205.40;2252.80;;;;;;5050092;28;20530;-58
2022/01/15 09:57:30;;;;;;;29.05;17.60;;;205.50;2252.80;;;;;;5030908;28;20029;-76
2022/01/15 09:59:55;;;;;;;24.52;14.88;;;205.70;2252.80;;;;;;5030611;28;20164;-58
2022/01/15 10:02:21;;;;;;;22.90;16.45;;;205.70;2252.80;;;;;;5030348;28;20037;-75
2022/01/15 10:04:47;;;;;;;21.30;15.85;;;205.60;2252.80;;;;;;5030165;28;20103;-76
2022/01/15 10:07:22;;;;;;;21.42;13.85;;;205.60;2252.80;;;;;;5029828;28;20052;-74
2022/01/15 10:09:49;;;;;;;23.17;13.43;;;205.50;2252.80;;;;;;5030136;28;20030;-73
2022/01/15 10:12:31;;;;;;;25.50;16.83;;;205.40;2252.80;;;;;;5030150;28;20022;-66
2022/01/15 10:15:05;;;;;;;47.17;31.00;;;205.60;2252.80;;;;;;5030226;28;20032;-73
2022/01/15 10:17:34;;;;;;;;;;;230.40;2252.80;;;;;;5030356;28;20022;-73
2022/01/15 10:20:07;;;;;;;39.15;26.48;;;230.50;2252.80;;;;;;5029930;28;20263;-58
2022/01/15 10:22:34;;;;;;;45.60;36.85;;;205.70;2252.80;;;;;;5029646;28;20040;-72
2022/01/15 10:25:01;;;;;;;32.35;21.73;;;230.50;2252.80;;;;;;5029925;28;20029;-58
2022/01/15 10:27:30;;;;;;;36.17;28.25;;;230.50;2252.80;;;;;;5028903;28;20114;-72
2022/01/15 10:30:15;;;;;;;22.60;13.10;;;230.70;2252.80;;;;;;5029700;28;20072;-73
2022/01/15 10:32:53;;;;;;;21.10;14.70;;;231.00;2252.80;;;;;;5029873;28;20034;-58
2022/01/15 10:35:19;;;;;;;26.02;16.75;;;230.60;2252.80;;;;;;5031714;28;20037;-78
2022/01/15 10:38:17;;;;;;;35.97;23.67;;;230.90;2252.80;;;;;;5036977;28;20110;-76
2022/01/15 10:40:48;;;;;;;21.52;14.05;;;230.90;2252.80;;;;;;5032013;28;20372;-70
2022/01/15 10:43:18;;;;;;;38.92;26.08;;;231.10;2252.80;;;;;;5034112;28;20377;-61
2022/01/15 10:46:01;;;;;;;37.92;25.73;;;231.00;2252.80;;;;;;5031748;28;20493;-60
2022/01/15 10:48:33;;;;;;;22.83;17.27;;;230.90;2252.80;;;;;;5032946;28;20435;-80
2022/01/15 10:51:08;;;;;;;28.15;19.83;;;230.90;2252.80;;;;;;5032805;28;20092;-59
2022/01/15 10:53:38;;;;;;;21.83;15.50;;;231.10;2252.80;;;;;;5029945;28;20045;-60
2022/01/15 10:56:06;;;;;;;20.73;12.05;;;231.20;2252.80;;;;;;5031511;28;20021;-60
2022/01/15 10:58:32;;;;;;;17.30;11.60;;;231.20;2252.80;;;;;;5031634;28;20400;-60
2022/01/15 11:00:59;;;;;;;21.98;14.73;;;231.30;2252.80;;;;;;5033780;28;20029;-75
2022/01/15 11:03:38;;;;;;;17.38;11.60;;;231.20;2252.80;;;;;;5033740;28;20029;-73
2022/01/15 11:06:05;;;;;;;29.08;18.50;;;231.10;2252.80;;;;;;5034334;28;20017;-60
2022/01/15 11:08:35;;;;;;;34.63;19.75;;;231.10;2252.80;;;;;;5035236;28;20057;-59
2022/01/15 11:11:06;;;;;;;20.52;14.10;;;231.30;2252.80;;;;;;5033812;28;20476;-60
2022/01/15 11:13:43;;;;;;;43.33;27.65;;;256.00;2252.80;;;;;;5033292;28;20030;-62
2022/01/15 11:16:14;;;;;;;20.92;14.55;;;231.30;2252.80;;;;;;5033010;28;20028;-61
2022/01/15 11:18:43;;;;;;;16.77;10.73;;;231.30;2252.80;;;;;;5033020;28;20029;-65
2022/01/15 11:21:11;;;;;;;21.52;13.95;;;231.20;2252.80;;;;;;5031774;28;20037;-60
2022/01/15 11:23:40;;;;;;;30.52;18.80;;;231.10;2252.80;;;;;;5033179;28;20461;-78
2022/01/15 11:26:12;;;;;;;30.70;20.35;;;231.20;2252.80;;;;;;5032980;28;20029;-78
2022/01/15 11:28:39;;;;;;;62.50;38.97;;;231.30;2252.80;;;;;;5033146;28;20048;-66
2022/01/15 11:31:07;;;;;;;29.02;18.35;;;231.30;2252.80;;;;;;5032463;28;20481;-60
2022/01/15 11:33:36;;;;;;;18.25;13.23;;;231.20;2252.80;;;;;;5032724;28;20072;-77
2022/01/15 11:36:04;;;;;;;22.35;15.65;;;231.10;2252.80;;;;;;5032657;28;20216;-78
2022/01/15 11:38:39;;;;;;;28.27;19.23;;;231.20;2252.80;;;;;;5032826;28;20029;-59
2022/01/15 11:41:05;;;;;;;25.13;14.82;;;231.10;2252.80;;;;;;5032585;28;20112;-59
2022/01/15 11:43:31;;;;;;;34.92;23.48;;;231.10;2252.80;;;;;;5032837;28;20057;-59
2022/01/15 11:46:01;;;;;;;35.25;22.17;;;231.30;2252.80;;;;;;5032603;28;20025;-67
2022/01/15 11:48:35;;;;;;;35.47;24.75;;;231.30;2252.80;;;;;;5032706;28;20026;-79
2022/01/15 11:51:13;;;;;;;30.75;22.10;;;231.30;2252.80;;;;;;5032617;28;20021;-60
2022/01/15 11:53:49;;;;;;;46.97;28.92;;;256.20;2252.80;;;;;;5032238;28;20049;-80
2022/01/15 11:56:17;;;;;;;45.70;34.10;;;256.00;2252.80;;;;;;5032045;28;20541;-77
2022/01/15 11:58:43;;;;;;;20.17;13.88;;;231.30;2252.80;;;;;;5032505;28;20391;-60
2022/01/15 12:01:42;;;;;;;17.45;11.35;;;231.20;2252.80;;;;;;5031973;28;20036;-59
2022/01/15 12:04:35;;;;;;;18.23;13.98;;;230.90;2252.80;;;;;;5032251;28;20063;-60
2022/01/15 12:07:07;;;;;;;49.42;32.50;;;230.90;2252.80;;;;;;5031686;28;20092;-60
2022/01/15 12:09:40;;;;;;;25.75;17.08;;;230.60;2252.80;;;;;;5031244;28;20550;-59
2022/01/15 12:12:21;;;;;;;28.70;18.92;;;230.60;2252.80;;;;;;5032538;28;20037;-59
2022/01/15 12:14:50;;;;;;;41.92;28.90;;;230.50;2252.80;;;;;;5031976;28;20480;-60
2022/01/15 12:17:32;;;;;;;34.47;28.83;;;205.70;2252.80;;;;;;5031748;28;20380;-60
2022/01/15 12:20:00;;;;;;;35.47;24.98;;;205.60;2252.80;;;;;;5032522;28;20033;-59
2022/01/15 12:22:56;;;;;;;39.20;23.92;;;205.50;2252.80;;;;;;5032200;28;20041;-79
2022/01/15 12:25:21;;;;;;;27.83;18.50;;;205.60;2252.80;;;;;;5032259;28;20384;-60
2022/01/15 12:27:58;;;;;;;23.02;15.40;;;205.50;2252.80;;;;;;5032827;28;20018;-75
2022/01/15 12:30:29;;;;;;;35.45;23.42;;;205.60;2252.80;;;;;;5032020;28;20385;-72